createdAt,value
2023-10-15T00:00:26.070Z,8.90
2023-10-15T00:02:53.960Z,8.90
2023-10-15T00:05:27.091Z,8.90
2023-10-15T00:07:55.074Z,8.90
2023-10-15T00:10:24.451Z,8.90
2023-10-15T00:12:52.579Z,9.10
2023-10-15T00:15:21.053Z,9.10
2023-10-15T00:17:49.787Z,9.00
2023-10-15T00:20:24.180Z,9.00
2023-10-15T00:22:52.634Z,8.90
2023-10-15T00:25:21.327Z,8.80
2023-10-15T00:27:58.189Z,8.80
2023-10-15T00:30:33.447Z,8.90
2023-10-15T00:33:05.160Z,8.80
2023-10-15T00:35:36.032Z,8.80
2023-10-15T00:38:20.370Z,8.80
2023-10-15T00:40:54.034Z,8.80
2023-10-15T00:43:22.663Z,8.90
2023-10-15T00:45:50.234Z,8.80
2023-10-15T00:48:29.332Z,8.80
2023-10-15T00:50:57.248Z,8.80
2023-10-15T00:53:28.637Z,8.70
2023-10-15T00:56:05.419Z,8.70
2023-10-15T00:58:40.905Z,8.70
2023-10-15T01:01:21.276Z,8.70
2023-10-15T01:03:55.151Z,8.70
2023-10-15T01:06:36.046Z,8.70
2023-10-15T01:09:11.653Z,8.70
2023-10-15T01:11:46.058Z,8.70
2023-10-15T01:14:14.687Z,8.80
2023-10-15T01:16:42.523Z,8.70
2023-10-15T01:19:12.508Z,8.60
2023-10-15T01:21:49.573Z,8.70
2023-10-15T01:24:20.677Z,8.70
2023-10-15T01:27:20.793Z,8.60
2023-10-15T01:29:49.562Z,8.60
2023-10-15T01:32:23.806Z,8.50
2023-10-15T01:34:54.003Z,8.40
2023-10-15T01:37:21.779Z,8.40
2023-10-15T01:39:50.155Z,8.40
2023-10-15T01:42:30.633Z,8.30
2023-10-15T01:45:14.912Z,8.30
2023-10-15T01:48:07.635Z,8.20
2023-10-15T01:50:46.719Z,8.20
2023-10-15T01:53:13.768Z,8.20
2023-10-15T01:55:54.547Z,8.20
2023-10-15T01:58:28.191Z,8.20
2023-10-15T02:00:56.046Z,8.20
2023-10-15T02:03:26.524Z,8.20
2023-10-15T02:05:55.626Z,8.20
2023-10-15T02:08:25.890Z,8.20
2023-10-15T02:10:57.269Z,8.20
2023-10-15T02:13:27.754Z,8.20
2023-10-15T02:15:57.423Z,8.10
2023-10-15T02:18:24.966Z,8.20
2023-10-15T02:20:52.119Z,8.20
2023-10-15T02:23:21.100Z,8.20
2023-10-15T02:26:01.014Z,8.20
2023-10-15T02:28:32.680Z,8.20
2023-10-15T02:31:21.499Z,8.20
2023-10-15T02:33:48.708Z,8.20
2023-10-15T02:36:18.911Z,8.30
2023-10-15T02:38:55.022Z,8.30
2023-10-15T02:41:26.670Z,8.40
2023-10-15T02:43:55.392Z,8.40
2023-10-15T02:46:25.682Z,8.50
2023-10-15T02:48:54.976Z,8.70
2023-10-15T02:51:26.086Z,8.90
2023-10-15T02:53:55.749Z,8.90
2023-10-15T02:56:24.149Z,8.80
2023-10-15T02:58:51.957Z,8.90
2023-10-15T03:01:20.573Z,8.80
2023-10-15T03:03:51.932Z,8.80
2023-10-15T03:06:29.576Z,8.90
2023-10-15T03:08:57.769Z,8.90
2023-10-15T03:11:25.672Z,8.80
2023-10-15T03:14:02.173Z,8.80
2023-10-15T03:16:31.561Z,8.70
2023-10-15T03:19:08.270Z,8.70
2023-10-15T03:21:40.045Z,8.70
2023-10-15T03:24:08.078Z,8.70
2023-10-15T03:26:36.029Z,8.70
2023-10-15T03:29:10.814Z,8.60
2023-10-15T03:31:39.410Z,8.70
2023-10-15T03:34:06.625Z,8.80
2023-10-15T03:36:53.272Z,8.80
2023-10-15T03:39:34.975Z,8.70
2023-10-15T03:42:18.264Z,8.60
2023-10-15T03:44:48.353Z,8.60
2023-10-15T03:47:17.275Z,8.60
2023-10-15T03:49:47.682Z,8.60
2023-10-15T03:52:22.014Z,8.60
2023-10-15T03:54:52.662Z,8.60
2023-10-15T03:57:24.738Z,8.60
2023-10-15T03:59:54.841Z,8.50
2023-10-15T04:03:00.398Z,8.50
2023-10-15T04:05:30.090Z,8.60
2023-10-15T04:07:57.991Z,8.60
2023-10-15T04:10:25.798Z,8.50
2023-10-15T04:12:53.505Z,8.60
2023-10-15T04:15:23.197Z,8.60
2023-10-15T04:17:50.535Z,8.70
2023-10-15T04:20:26.489Z,8.80
2023-10-15T04:22:55.296Z,8.80
2023-10-15T04:25:27.000Z,8.80
2023-10-15T04:27:55.453Z,8.60
2023-10-15T04:30:24.163Z,8.60
2023-10-15T04:32:51.694Z,8.60
2023-10-15T04:35:20.171Z,8.60
2023-10-15T04:37:50.329Z,8.60
2023-10-15T04:40:24.240Z,8.60
2023-10-15T04:42:52.179Z,8.60
2023-10-15T04:45:37.267Z,8.50
2023-10-15T04:48:13.967Z,8.50
2023-10-15T04:50:42.224Z,8.40
2023-10-15T04:53:21.334Z,8.30
2023-10-15T04:55:55.771Z,8.50
2023-10-15T04:58:25.825Z,8.40
2023-10-15T05:00:52.912Z,8.40
2023-10-15T05:03:20.319Z,8.40
2023-10-15T05:05:47.782Z,8.50
2023-10-15T05:08:18.509Z,8.50
2023-10-15T05:10:51.837Z,8.40
2023-10-15T05:13:20.137Z,8.30
2023-10-15T05:15:51.264Z,8.40
2023-10-15T05:18:20.240Z,8.40
2023-10-15T05:20:52.162Z,8.40
2023-10-15T05:23:21.310Z,8.30
2023-10-15T05:25:51.169Z,8.30
2023-10-15T05:28:18.679Z,8.30
2023-10-15T05:30:45.898Z,8.30
2023-10-15T05:33:13.673Z,8.10
2023-10-15T05:35:45.246Z,8.10
2023-10-15T05:38:12.251Z,8.20
2023-10-15T05:40:39.807Z,8.20
2023-10-15T05:43:07.201Z,8.20
2023-10-15T05:45:34.369Z,8.30
2023-10-15T05:48:01.904Z,8.30
2023-10-15T05:50:30.034Z,8.20
2023-10-15T05:52:57.474Z,8.20
2023-10-15T05:55:24.578Z,8.20
2023-10-15T05:57:51.938Z,8.10
2023-10-15T06:00:19.794Z,8.10
2023-10-15T06:02:49.063Z,8.10
2023-10-15T06:05:16.696Z,8.00
2023-10-15T06:07:44.760Z,8.00
2023-10-15T06:10:15.428Z,8.00
2023-10-15T06:12:43.364Z,7.90
2023-10-15T06:15:15.731Z,7.90
2023-10-15T06:17:48.177Z,7.90
2023-10-15T06:20:16.416Z,8.00
2023-10-15T06:22:45.411Z,8.00
2023-10-15T06:25:15.357Z,8.00
2023-10-15T06:27:43.128Z,8.00
2023-10-15T06:30:16.087Z,8.00
2023-10-15T06:32:49.230Z,8.00
2023-10-15T06:35:21.572Z,8.00
2023-10-15T06:37:53.252Z,8.00
2023-10-15T06:40:24.076Z,8.10
2023-10-15T06:42:53.412Z,8.20
2023-10-15T06:45:21.419Z,8.20
2023-10-15T06:47:54.830Z,8.20
2023-10-15T06:50:26.234Z,8.30
2023-10-15T06:52:55.327Z,8.30
2023-10-15T06:55:22.868Z,8.30
2023-10-15T06:57:50.753Z,8.30
2023-10-15T07:00:25.589Z,8.40
2023-10-15T07:02:54.224Z,8.40
2023-10-15T07:05:25.809Z,8.50
2023-10-15T07:07:54.240Z,8.50
2023-10-15T07:10:22.787Z,8.40
2023-10-15T07:12:54.087Z,8.40
2023-10-15T07:15:21.998Z,8.50
2023-10-15T07:17:51.321Z,8.50
2023-10-15T07:20:31.046Z,8.50
2023-10-15T07:23:04.309Z,8.60
2023-10-15T07:25:35.730Z,8.50
2023-10-15T07:28:03.484Z,8.50
2023-10-15T07:30:32.222Z,8.50
2023-10-15T07:33:00.041Z,8.60
2023-10-15T07:35:29.869Z,8.60
2023-10-15T07:38:04.624Z,8.50
2023-10-15T07:40:34.469Z,8.50
2023-10-15T07:43:04.005Z,8.50
2023-10-15T07:45:33.165Z,8.50
2023-10-15T07:48:03.190Z,8.50
2023-10-15T07:50:32.267Z,8.40
2023-10-15T07:53:00.130Z,8.50
2023-10-15T07:55:28.406Z,8.40
2023-10-15T07:57:55.598Z,8.50
2023-10-15T08:00:27.692Z,8.50
2023-10-15T08:02:59.577Z,8.60
2023-10-15T08:05:34.480Z,8.60
2023-10-15T08:08:02.896Z,8.60
2023-10-15T08:10:34.030Z,8.60
2023-10-15T08:13:04.873Z,8.70
2023-10-15T08:15:35.006Z,8.80
2023-10-15T08:18:03.589Z,8.60
2023-10-15T08:20:32.764Z,8.70
2023-10-15T08:23:00.456Z,8.70
2023-10-15T08:25:27.563Z,8.80
2023-10-15T08:27:55.696Z,8.80
2023-10-15T08:30:22.908Z,8.80
2023-10-15T08:32:50.778Z,8.80
2023-10-15T08:35:18.214Z,8.80
2023-10-15T08:37:47.937Z,8.80
2023-10-15T08:40:19.272Z,8.80
2023-10-15T08:43:05.528Z,8.80
2023-10-15T08:45:36.294Z,8.90
2023-10-15T08:48:05.409Z,8.90
2023-10-15T08:50:37.584Z,9.10
2023-10-15T08:53:11.208Z,9.20
2023-10-15T08:55:39.362Z,9.30
2023-10-15T08:58:08.465Z,9.20
2023-10-15T09:00:38.013Z,9.30
2023-10-15T09:03:05.675Z,9.40
2023-10-15T09:05:41.883Z,9.60
2023-10-15T09:08:14.041Z,9.60
2023-10-15T09:10:42.494Z,9.60
2023-10-15T09:13:17.703Z,9.60
2023-10-15T09:15:56.761Z,9.50
2023-10-15T09:18:26.808Z,9.20
2023-10-15T09:20:54.182Z,9.20
2023-10-15T09:23:25.094Z,9.00
2023-10-15T09:25:57.297Z,9.00
2023-10-15T09:28:31.512Z,9.00
2023-10-15T09:31:12.874Z,8.90
2023-10-15T09:33:41.566Z,9.10
2023-10-15T09:36:09.909Z,9.10
2023-10-15T09:38:38.397Z,9.10
2023-10-15T09:41:07.326Z,9.10
2023-10-15T09:43:37.529Z,8.90
2023-10-15T09:46:07.183Z,9.00
2023-10-15T09:48:35.355Z,8.90
2023-10-15T09:51:03.551Z,9.00
2023-10-15T09:53:34.890Z,8.90
2023-10-15T09:56:08.725Z,8.80
2023-10-15T09:58:38.234Z,8.90
2023-10-15T10:01:10.600Z,9.10
2023-10-15T10:04:01.127Z,9.30
2023-10-15T10:06:53.136Z,9.50
2023-10-15T10:09:38.075Z,9.70
2023-10-15T10:12:17.446Z,9.70
2023-10-15T10:15:11.850Z,9.70
2023-10-15T10:17:40.502Z,9.70
2023-10-15T10:20:12.388Z,9.70
2023-10-15T10:22:43.064Z,9.60
2023-10-15T10:25:31.034Z,9.60
2023-10-15T10:28:19.578Z,9.50
2023-10-15T10:30:58.695Z,9.40
2023-10-15T10:33:50.360Z,9.30
2023-10-15T10:36:22.887Z,9.20
2023-10-15T10:39:02.491Z,9.40
2023-10-15T10:41:39.841Z,9.30
2023-10-15T10:44:35.306Z,9.20
2023-10-15T10:47:20.999Z,9.30
2023-10-15T10:50:02.155Z,9.30
2023-10-15T10:52:36.997Z,9.40
2023-10-15T10:55:38.146Z,9.40
2023-10-15T10:58:09.455Z,9.40
2023-10-15T11:00:36.613Z,9.30
2023-10-15T11:03:07.809Z,9.40
2023-10-15T11:05:35.599Z,9.70
2023-10-15T11:08:04.473Z,9.80
2023-10-15T11:10:35.618Z,10.10
2023-10-15T11:13:03.905Z,10.10
2023-10-15T11:15:31.769Z,10.30
2023-10-15T11:17:59.446Z,10.50
2023-10-15T11:20:28.686Z,10.70
2023-10-15T11:22:56.055Z,10.70
2023-10-15T11:25:24.769Z,10.70
2023-10-15T11:27:52.372Z,10.70
2023-10-15T11:30:21.468Z,10.80
2023-10-15T11:32:49.540Z,10.80
2023-10-15T11:35:16.898Z,10.90
2023-10-15T11:37:46.898Z,10.90
2023-10-15T11:40:18.449Z,11.00
2023-10-15T11:42:52.383Z,10.80
2023-10-15T11:45:31.355Z,11.00
2023-10-15T11:47:59.827Z,11.20
2023-10-15T11:50:30.599Z,11.30
2023-10-15T11:52:57.762Z,11.70
2023-10-15T11:55:24.767Z,11.80
2023-10-15T11:57:52.029Z,11.50
2023-10-15T12:00:35.556Z,11.40
2023-10-15T12:03:02.843Z,11.40
2023-10-15T12:05:33.109Z,11.40
2023-10-15T12:08:04.594Z,11.30
2023-10-15T12:10:32.673Z,11.20
2023-10-15T12:13:03.973Z,11.20
2023-10-15T12:15:33.084Z,11.30
2023-10-15T12:18:00.512Z,11.30
2023-10-15T12:20:28.262Z,11.20
2023-10-15T12:22:56.234Z,11.00
2023-10-15T12:25:24.052Z,11.20
2023-10-15T12:27:51.235Z,11.00
2023-10-15T12:30:28.879Z,10.90
2023-10-15T12:33:02.221Z,10.80
2023-10-15T12:35:29.851Z,10.70
2023-10-15T12:38:03.334Z,10.80
2023-10-15T12:40:34.318Z,10.80
2023-10-15T12:43:09.484Z,11.00
2023-10-15T12:45:39.707Z,11.10
2023-10-15T12:48:09.632Z,11.30
2023-10-15T12:50:39.841Z,11.40
2023-10-15T12:53:06.862Z,11.60
2023-10-15T12:55:33.995Z,11.80
2023-10-15T12:58:00.992Z,12.00
2023-10-15T13:00:28.545Z,11.90
2023-10-15T13:02:56.044Z,12.10
2023-10-15T13:05:25.095Z,12.40
2023-10-15T13:07:54.098Z,12.00
2023-10-15T13:10:22.984Z,12.00
2023-10-15T13:12:52.468Z,12.20
2023-10-15T13:15:20.072Z,11.90
2023-10-15T13:17:47.973Z,11.60
2023-10-15T13:20:18.708Z,11.40
2023-10-15T13:22:45.939Z,11.30
2023-10-15T13:25:13.959Z,10.90
2023-10-15T13:27:42.036Z,11.00
2023-10-15T13:30:14.739Z,10.90
2023-10-15T13:32:48.352Z,10.50
2023-10-15T13:35:17.035Z,10.30
2023-10-15T13:37:44.577Z,10.40
2023-10-15T13:40:12.775Z,10.60
2023-10-15T13:42:43.353Z,10.50
2023-10-15T13:45:12.182Z,10.50
2023-10-15T13:47:40.255Z,10.50
2023-10-15T13:50:10.673Z,10.50
2023-10-15T13:52:38.986Z,10.50
2023-10-15T13:55:07.148Z,10.70
2023-10-15T13:57:38.569Z,11.00
2023-10-15T14:00:12.807Z,11.00
2023-10-15T14:02:42.565Z,11.20
2023-10-15T14:05:10.771Z,11.40
2023-10-15T14:07:40.661Z,11.20
2023-10-15T14:10:08.227Z,11.40
2023-10-15T14:12:35.568Z,11.70
2023-10-15T14:15:04.401Z,11.60
2023-10-15T14:17:33.097Z,11.70
2023-10-15T14:20:02.845Z,11.90
2023-10-15T14:22:29.992Z,11.90
2023-10-15T14:24:57.938Z,12.10
2023-10-15T14:27:26.697Z,12.20
2023-10-15T14:29:53.739Z,12.10
2023-10-15T14:32:20.872Z,12.30
2023-10-15T14:34:48.076Z,12.40
2023-10-15T14:37:15.146Z,12.50
2023-10-15T14:39:43.261Z,12.50
2023-10-15T14:42:10.407Z,12.50
2023-10-15T14:44:37.753Z,12.30
2023-10-15T14:47:04.965Z,11.90
2023-10-15T14:49:32.025Z,11.80
2023-10-15T14:51:59.967Z,11.80
2023-10-15T14:54:27.302Z,12.00
2023-10-15T14:56:54.960Z,12.00
2023-10-15T14:59:22.151Z,12.00
2023-10-15T15:01:50.712Z,11.90
2023-10-15T15:04:23.005Z,11.70
2023-10-15T15:06:50.141Z,11.80
2023-10-15T15:09:17.625Z,11.80
2023-10-15T15:11:44.765Z,11.70
2023-10-15T15:14:14.918Z,11.60
2023-10-15T15:16:42.065Z,11.50
2023-10-15T15:19:09.613Z,11.40
2023-10-15T15:21:36.965Z,11.40
2023-10-15T15:24:05.260Z,11.30
2023-10-15T15:26:32.350Z,11.40
2023-10-15T15:28:59.343Z,11.40
2023-10-15T15:31:26.745Z,11.40
2023-10-15T15:33:53.709Z,11.40
2023-10-15T15:36:20.852Z,11.30
2023-10-15T15:38:47.946Z,11.40
2023-10-15T15:41:14.971Z,11.30
2023-10-15T15:43:43.630Z,11.30
2023-10-15T15:46:14.879Z,11.20
2023-10-15T15:48:42.073Z,11.10
2023-10-15T15:51:09.359Z,11.10
2023-10-15T15:53:36.787Z,11.00
2023-10-15T15:56:05.265Z,11.00
2023-10-15T15:58:32.397Z,11.00
2023-10-15T16:00:59.482Z,10.90
2023-10-15T16:03:26.734Z,10.90
2023-10-15T16:06:02.101Z,10.80
2023-10-15T16:08:31.002Z,10.70
2023-10-15T16:10:58.237Z,10.70
2023-10-15T16:13:25.568Z,10.70
2023-10-15T16:15:53.824Z,10.70
2023-10-15T16:18:21.198Z,10.60
2023-10-15T16:20:48.403Z,10.60
2023-10-15T16:23:15.460Z,10.60
2023-10-15T16:25:42.560Z,10.70
2023-10-15T16:28:10.785Z,10.70
2023-10-15T16:30:38.046Z,10.70
2023-10-15T16:33:05.333Z,10.70
2023-10-15T16:35:32.847Z,10.70
2023-10-15T16:38:00.258Z,10.70
2023-10-15T16:40:27.620Z,10.80
2023-10-15T16:42:56.400Z,10.70
2023-10-15T16:45:23.478Z,10.60
2023-10-15T16:47:51.036Z,10.50
2023-10-15T16:50:18.384Z,10.50
2023-10-15T16:52:45.406Z,10.40
2023-10-15T16:55:12.805Z,10.40
2023-10-15T16:57:40.403Z,10.40
2023-10-15T17:00:10.429Z,10.40
2023-10-15T17:02:37.671Z,10.30
2023-10-15T17:05:04.869Z,10.20
2023-10-15T17:07:32.030Z,10.10
2023-10-15T17:10:02.852Z,10.00
2023-10-15T17:12:30.082Z,9.90
2023-10-15T17:14:57.234Z,9.90
2023-10-15T17:17:24.613Z,9.80
2023-10-15T17:19:52.495Z,9.70
2023-10-15T17:22:19.917Z,9.70
2023-10-15T17:24:46.953Z,9.60
2023-10-15T17:27:14.249Z,9.60
2023-10-15T17:29:55.575Z,9.50
2023-10-15T17:32:28.476Z,9.50
2023-10-15T17:34:55.661Z,9.40
2023-10-15T17:37:23.993Z,9.40
2023-10-15T17:39:53.728Z,9.40
2023-10-15T17:42:20.772Z,9.30
2023-10-15T17:44:47.836Z,9.30
2023-10-15T17:47:15.264Z,9.20
2023-10-15T17:49:42.440Z,9.20
2023-10-15T17:52:09.824Z,9.10
2023-10-15T17:54:36.830Z,9.00
2023-10-15T17:57:05.693Z,9.00
2023-10-15T17:59:32.778Z,9.00
2023-10-15T18:02:00.736Z,9.00
2023-10-15T18:04:28.051Z,9.00
2023-10-15T18:06:55.236Z,9.00
2023-10-15T18:09:24.400Z,8.90
2023-10-15T18:11:52.282Z,8.90
2023-10-15T18:14:22.081Z,8.80
2023-10-15T18:16:51.609Z,8.90
2023-10-15T18:19:18.655Z,8.80
2023-10-15T18:21:48.104Z,8.80
2023-10-15T18:24:15.413Z,8.80
2023-10-15T18:26:42.889Z,8.70
2023-10-15T18:29:10.951Z,8.60
2023-10-15T18:31:38.004Z,8.60
2023-10-15T18:34:05.238Z,8.60
2023-10-15T18:36:52.162Z,8.60
2023-10-15T18:39:21.428Z,8.50
2023-10-15T18:41:49.336Z,8.50
2023-10-15T18:44:22.882Z,8.50
2023-10-15T18:46:50.365Z,8.50
2023-10-15T18:49:17.567Z,8.50
2023-10-15T18:51:44.682Z,8.30
2023-10-15T18:54:11.873Z,8.30
2023-10-15T18:56:39.246Z,8.40
2023-10-15T18:59:07.309Z,8.30
2023-10-15T19:01:35.113Z,8.30
2023-10-15T19:04:02.333Z,8.20
2023-10-15T19:06:33.579Z,8.20
2023-10-15T19:09:00.624Z,8.10
2023-10-15T19:11:31.840Z,8.20
2023-10-15T19:13:58.860Z,8.20
2023-10-15T19:16:26.041Z,8.20
2023-10-15T19:18:56.070Z,8.10
2023-10-15T19:21:26.293Z,8.00
2023-10-15T19:23:53.333Z,8.00
2023-10-15T19:26:21.629Z,8.00
2023-10-15T19:28:51.398Z,8.00
2023-10-15T19:31:18.452Z,8.00
2023-10-15T19:33:48.673Z,8.00
2023-10-15T19:36:15.901Z,8.10
2023-10-15T19:38:44.006Z,8.00
2023-10-15T19:41:11.662Z,7.90
2023-10-15T19:43:38.648Z,7.90
2023-10-15T19:46:08.046Z,7.80
2023-10-15T19:48:35.592Z,7.90
2023-10-15T19:51:04.207Z,8.00
2023-10-15T19:53:31.385Z,7.90
2023-10-15T19:55:58.559Z,7.90
2023-10-15T19:58:25.624Z,7.90
2023-10-15T20:00:53.491Z,7.90
2023-10-15T20:03:21.089Z,8.00
2023-10-15T20:05:48.663Z,7.90
2023-10-15T20:08:16.255Z,7.90
2023-10-15T20:10:46.228Z,8.00
2023-10-15T20:13:13.321Z,8.00
2023-10-15T20:15:40.435Z,8.00
2023-10-15T20:18:09.386Z,8.00
2023-10-15T20:20:37.844Z,8.00
2023-10-15T20:23:05.010Z,8.00
2023-10-15T20:25:33.409Z,8.00
2023-10-15T20:28:03.095Z,8.10
2023-10-15T20:30:33.388Z,8.10
2023-10-15T20:33:03.795Z,8.20
2023-10-15T20:35:30.810Z,8.20
2023-10-15T20:37:58.801Z,8.20
2023-10-15T20:40:27.477Z,8.10
2023-10-15T20:42:55.103Z,8.10
2023-10-15T20:45:25.138Z,8.10
2023-10-15T20:47:52.733Z,8.10
2023-10-15T20:50:24.536Z,8.00
2023-10-15T20:52:51.650Z,7.90
2023-10-15T20:55:19.392Z,7.80
2023-10-15T20:57:49.169Z,7.80
2023-10-15T21:00:23.307Z,7.90
2023-10-15T21:02:51.973Z,7.90
2023-10-15T21:05:19.267Z,7.90
2023-10-15T21:07:51.221Z,7.90
2023-10-15T21:10:19.381Z,7.80
2023-10-15T21:12:46.588Z,7.80
2023-10-15T21:15:14.090Z,7.80
2023-10-15T21:17:42.709Z,7.80
2023-10-15T21:20:13.722Z,7.80
2023-10-15T21:22:42.442Z,7.80
2023-10-15T21:25:11.183Z,7.80
2023-10-15T21:27:39.013Z,7.80
2023-10-15T21:30:08.265Z,7.80
2023-10-15T21:32:35.810Z,7.70
2023-10-15T21:35:04.226Z,7.60
2023-10-15T21:37:32.692Z,7.60
2023-10-15T21:40:00.000Z,7.60
2023-10-15T21:42:28.581Z,7.60
2023-10-15T21:44:55.644Z,7.60
2023-10-15T21:50:04.762Z,7.50
2023-10-15T21:52:31.851Z,7.40
2023-10-15T21:54:58.859Z,7.50
2023-10-15T21:57:25.923Z,7.40
2023-10-15T21:59:53.706Z,7.40
2023-10-15T22:02:22.163Z,7.50
2023-10-15T22:04:49.263Z,7.40
2023-10-15T22:07:16.282Z,7.40
2023-10-15T22:09:44.344Z,7.40
2023-10-15T22:12:11.553Z,7.30
2023-10-15T22:14:46.776Z,7.30
2023-10-15T22:17:15.818Z,7.20
2023-10-15T22:19:44.192Z,7.20
2023-10-15T22:22:12.103Z,7.20
2023-10-15T22:24:42.509Z,7.10
2023-10-15T22:27:18.930Z,7.10
2023-10-15T22:29:46.043Z,7.00
2023-10-15T22:32:13.434Z,7.00
2023-10-15T22:35:12.747Z,7.00
2023-10-15T22:37:39.762Z,7.00
2023-10-15T22:40:08.664Z,7.10
2023-10-15T22:42:38.036Z,7.00
2023-10-15T22:45:21.850Z,7.00
2023-10-15T22:47:48.948Z,6.90
2023-10-15T22:50:19.886Z,6.90
2023-10-15T22:52:46.876Z,6.90
2023-10-15T22:55:13.895Z,6.80
2023-10-15T22:57:41.684Z,6.80
2023-10-15T23:00:12.191Z,6.80
2023-10-15T23:02:41.124Z,6.80
2023-10-15T23:05:09.516Z,6.80
2023-10-15T23:07:39.047Z,6.80
2023-10-15T23:10:09.341Z,6.90
2023-10-15T23:12:45.286Z,6.90
2023-10-15T23:15:17.298Z,6.90
2023-10-15T23:17:45.331Z,6.90
2023-10-15T23:20:35.976Z,6.90
2023-10-15T23:23:06.959Z,6.90
2023-10-15T23:25:37.417Z,6.80
2023-10-15T23:28:14.143Z,6.80
2023-10-15T23:30:45.337Z,6.80
2023-10-15T23:33:12.964Z,6.80
2023-10-15T23:35:39.989Z,6.80
2023-10-15T23:38:08.608Z,6.80
2023-10-15T23:40:36.362Z,6.80
2023-10-15T23:43:07.045Z,6.80
2023-10-15T23:45:34.149Z,6.80
2023-10-15T23:48:14.601Z,6.70
2023-10-15T23:50:47.761Z,6.70
2023-10-15T23:53:31.433Z,6.70
2023-10-15T23:56:08.647Z,6.60
2023-10-15T23:58:36.693Z,6.60
